Aeroporto :
LOGIN :

Iscrizione | Disclaimer

   EN    FR    IT 

 










Sommario :    VFR   VFR Marginale   IFR   IFR Intensivo   IFR Molto Intensivo
Visibilità : 
Base nubi : 
>= 8 km
>= 3000ft
5 / 8 km
1000 / 3000 ft
1500m / 5 km
500 / 1000 ft
800 / 1500m
200 / 500 ft
< 800m
< 200 ft
Simboli :   Temporali  Nebbia  Neve Forte  Precipitazioni Forti  Vento > 20 kt
SIGMETs :   Varie  Temporali  Ghiacco  Turbolenza  Onda orograficha  Ceneri Vulcaniche






- Altitudine del aeroporto : 1083 ft


LRCT - Câmpia Turzii Air Base

ULTIMO METAR :
  • 200500Z VRB01KT 9999 BKN065 OVC130 M01/M03 Q1018 BLU BLU

METARs OBSOLETI :
  • 200400Z 32001KT 9999 SCT120 BKN150 M01/M04 Q1018 BLU BLU

TAF TAF LRCT
Valido dal 20 a 00 ore il 21 a 00 ore UTC


192300Z 2000/2100 32007KT 8000 SCT060 BKN150
PROB40
TEMPO 2001/2004 7000 -RA SCT020 BKN070
TEMPO 2004/2008 VRB03KT 2000 BR
BECMG 2008/2010 32008KT 9999 BKN040
PROB40
TEMPO 2011/2015 7000 -RA OVC020
BECMG 2017/2019 VRB03KT FEW050



MetMap, La meteo Aeronautica in un colpo d'occhio ! - Copyright ORBIFLY Dicembre 2007 - Disclaimer

ORBIFLY MET'MAP TEAM :

Programmazione e sviluppo : Alexandra Zaïnal
Concezione : Baudouin d'Aumeries
Aiuto per la programmazione : Marc-Olivier Méhu
Supporto tecnico e logistico : Manuel Goepfert
Aiuto per la traduzione : Arnaldo La Scala

Contatto : metmap@orbifly.com




FONTI E CREDITI :

   NOAA